sensor_id;sensor_type;location;lat;lon;timestamp;P1;durP1;ratioP1;P2;durP2;ratioP2
65420;SDS011;52028;50.658;14.004;2023-02-13T00:02:18;63.42;;;29.58;;
65420;SDS011;52028;50.658;14.004;2023-02-13T00:04:44;71.53;;;31.88;;
65420;SDS011;52028;50.658;14.004;2023-02-13T00:07:09;72.75;;;33.10;;
65420;SDS011;52028;50.658;14.004;2023-02-13T00:09:35;63.45;;;31.27;;
65420;SDS011;52028;50.658;14.004;2023-02-13T00:12:01;69.03;;;30.38;;
65420;SDS011;52028;50.658;14.004;2023-02-13T00:14:27;54.33;;;26.70;;
65420;SDS011;52028;50.658;14.004;2023-02-13T00:16:52;53.58;;;26.02;;
65420;SDS011;52028;50.658;14.004;2023-02-13T00:19:18;59.45;;;26.73;;
65420;SDS011;52028;50.658;14.004;2023-02-13T00:21:43;58.05;;;26.27;;
65420;SDS011;52028;50.658;14.004;2023-02-13T00:24:08;60.88;;;26.17;;
65420;SDS011;52028;50.658;14.004;2023-02-13T00:26:34;58.92;;;27.33;;
65420;SDS011;52028;50.658;14.004;2023-02-13T00:28:59;54.25;;;24.23;;
65420;SDS011;52028;50.658;14.004;2023-02-13T00:31:24;53.22;;;23.80;;
65420;SDS011;52028;50.658;14.004;2023-02-13T00:33:50;58.35;;;23.75;;
65420;SDS011;52028;50.658;14.004;2023-02-13T00:36:16;56.65;;;25.85;;
65420;SDS011;52028;50.658;14.004;2023-02-13T00:38:43;50.58;;;23.83;;
65420;SDS011;52028;50.658;14.004;2023-02-13T00:41:09;61.72;;;26.92;;
65420;SDS011;52028;50.658;14.004;2023-02-13T00:43:35;56.85;;;26.33;;
65420;SDS011;52028;50.658;14.004;2023-02-13T00:46:01;60.45;;;26.20;;
65420;SDS011;52028;50.658;14.004;2023-02-13T00:48:27;56.35;;;26.92;;
65420;SDS011;52028;50.658;14.004;2023-02-13T00:50:54;59.30;;;25.98;;
65420;SDS011;52028;50.658;14.004;2023-02-13T00:53:20;62.22;;;28.33;;
65420;SDS011;52028;50.658;14.004;2023-02-13T00:55:46;52.55;;;26.85;;
65420;SDS011;52028;50.658;14.004;2023-02-13T00:58:12;58.38;;;27.35;;
65420;SDS011;52028;50.658;14.004;2023-02-13T01:00:37;54.90;;;25.88;;
65420;SDS011;52028;50.658;14.004;2023-02-13T01:03:03;61.08;;;27.13;;
65420;SDS011;52028;50.658;14.004;2023-02-13T01:05:28;56.90;;;27.67;;
65420;SDS011;52028;50.658;14.004;2023-02-13T01:07:53;65.13;;;27.67;;
65420;SDS011;52028;50.658;14.004;2023-02-13T01:10:19;51.25;;;24.92;;
65420;SDS011;52028;50.658;14.004;2023-02-13T01:12:44;62.58;;;27.50;;
65420;SDS011;52028;50.658;14.004;2023-02-13T01:15:10;52.00;;;27.17;;
65420;SDS011;52028;50.658;14.004;2023-02-13T01:17:35;48.53;;;25.05;;
65420;SDS011;52028;50.658;14.004;2023-02-13T01:20:03;58.35;;;27.63;;
65420;SDS011;52028;50.658;14.004;2023-02-13T01:22:30;62.33;;;26.73;;
65420;SDS011;52028;50.658;14.004;2023-02-13T01:24:55;58.72;;;28.23;;
65420;SDS011;52028;50.658;14.004;2023-02-13T01:27:21;61.97;;;28.48;;
65420;SDS011;52028;50.658;14.004;2023-02-13T01:29:46;57.20;;;26.80;;
65420;SDS011;52028;50.658;14.004;2023-02-13T01:32:12;57.45;;;27.23;;
65420;SDS011;52028;50.658;14.004;2023-02-13T01:34:38;57.67;;;26.98;;
65420;SDS011;52028;50.658;14.004;2023-02-13T01:37:04;56.05;;;25.63;;
65420;SDS011;52028;50.658;14.004;2023-02-13T01:39:29;61.42;;;27.42;;
65420;SDS011;52028;50.658;14.004;2023-02-13T01:41:55;60.00;;;27.83;;
65420;SDS011;52028;50.658;14.004;2023-02-13T01:50:14;85.88;;;33.53;;
65420;SDS011;52028;50.658;14.004;2023-02-13T01:52:44;92.00;;;34.33;;
65420;SDS011;52028;50.658;14.004;2023-02-13T01:55:12;82.35;;;34.00;;
65420;SDS011;52028;50.658;14.004;2023-02-13T01:57:38;83.43;;;31.88;;
65420;SDS011;52028;50.658;14.004;2023-02-13T02:00:11;77.45;;;31.08;;
65420;SDS011;52028;50.658;14.004;2023-02-13T02:02:40;90.72;;;35.28;;
65420;SDS011;52028;50.658;14.004;2023-02-13T02:05:09;91.82;;;33.50;;
65420;SDS011;52028;50.658;14.004;2023-02-13T02:07:36;107.88;;;38.08;;
65420;SDS011;52028;50.658;14.004;2023-02-13T02:10:04;195.60;;;59.70;;
65420;SDS011;52028;50.658;14.004;2023-02-13T02:12:48;233.70;;;69.60;;
65420;SDS011;52028;50.658;14.004;2023-02-13T02:15:18;252.02;;;76.70;;
65420;SDS011;52028;50.658;14.004;2023-02-13T02:17:45;286.83;;;81.43;;
65420;SDS011;52028;50.658;14.004;2023-02-13T02:20:17;250.73;;;76.07;;
65420;SDS011;52028;50.658;14.004;2023-02-13T02:28:01;200.55;;;57.95;;
65420;SDS011;52028;50.658;14.004;2023-02-13T02:34:24;156.57;;;49.97;;
65420;SDS011;52028;50.658;14.004;2023-02-13T02:42:34;135.90;;;44.17;;
65420;SDS011;52028;50.658;14.004;2023-02-13T02:50:40;163.35;;;52.80;;
65420;SDS011;52028;50.658;14.004;2023-02-13T02:55:43;192.43;;;56.67;;
65420;SDS011;52028;50.658;14.004;2023-02-13T02:58:24;168.25;;;50.90;;
65420;SDS011;52028;50.658;14.004;2023-02-13T03:01:14;173.90;;;55.28;;
65420;SDS011;52028;50.658;14.004;2023-02-13T03:04:00;179.68;;;56.42;;
65420;SDS011;52028;50.658;14.004;2023-02-13T03:06:51;177.13;;;56.25;;
65420;SDS011;52028;50.658;14.004;2023-02-13T03:09:24;170.60;;;54.03;;
65420;SDS011;52028;50.658;14.004;2023-02-13T03:12:13;170.27;;;52.25;;
65420;SDS011;52028;50.658;14.004;2023-02-13T03:15:06;185.05;;;53.40;;
65420;SDS011;52028;50.658;14.004;2023-02-13T03:17:32;133.93;;;43.22;;
65420;SDS011;52028;50.658;14.004;2023-02-13T03:23:44;117.45;;;40.25;;
65420;SDS011;52028;50.658;14.004;2023-02-13T03:40:38;125.00;;;39.75;;
65420;SDS011;52028;50.658;14.004;2023-02-13T03:43:35;111.00;;;40.22;;
65420;SDS011;52028;50.658;14.004;2023-02-13T03:46:09;116.68;;;40.28;;
65420;SDS011;52028;50.658;14.004;2023-02-13T03:48:36;107.90;;;37.63;;
65420;SDS011;52028;50.658;14.004;2023-02-13T03:51:27;97.00;;;35.78;;
65420;SDS011;52028;50.658;14.004;2023-02-13T03:53:58;107.10;;;37.80;;
65420;SDS011;52028;50.658;14.004;2023-02-13T03:56:26;101.28;;;37.55;;
65420;SDS011;52028;50.658;14.004;2023-02-13T03:59:16;109.90;;;38.75;;
65420;SDS011;52028;50.658;14.004;2023-02-13T04:01:47;97.70;;;35.25;;
65420;SDS011;52028;50.658;14.004;2023-02-13T04:04:20;84.47;;;33.15;;
65420;SDS011;52028;50.658;14.004;2023-02-13T04:06:51;89.45;;;35.33;;
65420;SDS011;52028;50.658;14.004;2023-02-13T04:09:21;92.72;;;34.50;;
65420;SDS011;52028;50.658;14.004;2023-02-13T04:11:51;103.00;;;35.97;;
65420;SDS011;52028;50.658;14.004;2023-02-13T04:17:28;72.03;;;32.22;;
65420;SDS011;52028;50.658;14.004;2023-02-13T04:19:57;79.72;;;32.10;;
65420;SDS011;52028;50.658;14.004;2023-02-13T04:22:23;88.95;;;33.47;;
65420;SDS011;52028;50.658;14.004;2023-02-13T04:24:48;81.65;;;32.47;;
65420;SDS011;52028;50.658;14.004;2023-02-13T04:27:14;86.78;;;33.95;;
65420;SDS011;52028;50.658;14.004;2023-02-13T04:29:41;81.35;;;32.08;;
65420;SDS011;52028;50.658;14.004;2023-02-13T04:32:07;71.13;;;31.00;;
65420;SDS011;52028;50.658;14.004;2023-02-13T04:34:34;68.10;;;30.10;;
65420;SDS011;52028;50.658;14.004;2023-02-13T04:37:00;74.00;;;29.17;;
65420;SDS011;52028;50.658;14.004;2023-02-13T04:39:26;71.57;;;29.92;;
65420;SDS011;52028;50.658;14.004;2023-02-13T04:41:51;66.88;;;29.20;;
65420;SDS011;52028;50.658;14.004;2023-02-13T04:44:16;68.95;;;30.00;;
65420;SDS011;52028;50.658;14.004;2023-02-13T04:46:42;64.40;;;28.38;;
65420;SDS011;52028;50.658;14.004;2023-02-13T04:49:08;60.70;;;25.83;;
65420;SDS011;52028;50.658;14.004;2023-02-13T04:51:34;56.13;;;24.55;;
65420;SDS011;52028;50.658;14.004;2023-02-13T04:53:59;64.30;;;29.35;;
65420;SDS011;52028;50.658;14.004;2023-02-13T04:56:25;59.72;;;27.38;;
65420;SDS011;52028;50.658;14.004;2023-02-13T04:58:50;57.85;;;27.90;;
65420;SDS011;52028;50.658;14.004;2023-02-13T05:01:16;59.20;;;27.48;;
65420;SDS011;52028;50.658;14.004;2023-02-13T05:03:41;77.10;;;34.92;;
65420;SDS011;52028;50.658;14.004;2023-02-13T05:06:07;97.78;;;41.05;;
65420;SDS011;52028;50.658;14.004;2023-02-13T05:08:33;96.60;;;41.60;;
65420;SDS011;52028;50.658;14.004;2023-02-13T05:10:58;110.97;;;48.47;;
65420;SDS011;52028;50.658;14.004;2023-02-13T05:13:23;121.32;;;51.80;;
65420;SDS011;52028;50.658;14.004;2023-02-13T05:15:49;112.05;;;47.03;;
65420;SDS011;52028;50.658;14.004;2023-02-13T05:18:16;130.77;;;48.38;;
65420;SDS011;52028;50.658;14.004;2023-02-13T05:20:42;97.57;;;37.63;;
65420;SDS011;52028;50.658;14.004;2023-02-13T05:23:09;110.78;;;40.53;;
65420;SDS011;52028;50.658;14.004;2023-02-13T05:25:46;88.90;;;32.38;;
65420;SDS011;52028;50.658;14.004;2023-02-13T05:28:12;96.57;;;32.65;;
65420;SDS011;52028;50.658;14.004;2023-02-13T05:30:56;99.03;;;32.97;;
65420;SDS011;52028;50.658;14.004;2023-02-13T05:33:21;110.78;;;38.58;;
65420;SDS011;52028;50.658;14.004;2023-02-13T05:35:46;106.78;;;39.33;;
65420;SDS011;52028;50.658;14.004;2023-02-13T05:38:12;94.13;;;33.97;;
65420;SDS011;52028;50.658;14.004;2023-02-13T05:40:37;74.43;;;26.88;;
65420;SDS011;52028;50.658;14.004;2023-02-13T05:43:02;75.85;;;28.08;;
65420;SDS011;52028;50.658;14.004;2023-02-13T05:45:28;51.58;;;21.80;;
65420;SDS011;52028;50.658;14.004;2023-02-13T05:47:53;40.05;;;20.20;;
65420;SDS011;52028;50.658;14.004;2023-02-13T05:50:18;50.53;;;20.73;;
65420;SDS011;52028;50.658;14.004;2023-02-13T05:52:44;51.75;;;22.55;;
65420;SDS011;52028;50.658;14.004;2023-02-13T05:55:09;58.90;;;24.17;;
65420;SDS011;52028;50.658;14.004;2023-02-13T05:57:34;76.43;;;28.02;;
65420;SDS011;52028;50.658;14.004;2023-02-13T05:59:59;79.50;;;29.55;;
65420;SDS011;52028;50.658;14.004;2023-02-13T06:02:25;92.53;;;36.47;;
65420;SDS011;52028;50.658;14.004;2023-02-13T06:04:50;89.80;;;35.53;;
65420;SDS011;52028;50.658;14.004;2023-02-13T06:07:16;101.68;;;39.67;;
65420;SDS011;52028;50.658;14.004;2023-02-13T06:09:41;77.07;;;36.65;;
65420;SDS011;52028;50.658;14.004;2023-02-13T06:12:07;76.07;;;35.40;;
65420;SDS011;52028;50.658;14.004;2023-02-13T06:14:32;69.07;;;33.88;;
65420;SDS011;52028;50.658;14.004;2023-02-13T06:16:59;69.55;;;33.75;;
65420;SDS011;52028;50.658;14.004;2023-02-13T06:19:24;71.68;;;34.63;;
65420;SDS011;52028;50.658;14.004;2023-02-13T06:21:50;71.20;;;30.85;;
65420;SDS011;52028;50.658;14.004;2023-02-13T06:24:15;68.88;;;29.15;;
65420;SDS011;52028;50.658;14.004;2023-02-13T06:26:40;64.95;;;28.33;;
65420;SDS011;52028;50.658;14.004;2023-02-13T06:29:06;57.97;;;27.90;;
65420;SDS011;52028;50.658;14.004;2023-02-13T06:31:33;56.53;;;25.98;;
65420;SDS011;52028;50.658;14.004;2023-02-13T06:33:59;62.40;;;26.77;;
65420;SDS011;52028;50.658;14.004;2023-02-13T06:36:25;54.13;;;28.23;;
65420;SDS011;52028;50.658;14.004;2023-02-13T06:38:50;52.95;;;26.67;;
65420;SDS011;52028;50.658;14.004;2023-02-13T06:41:15;58.60;;;28.85;;
65420;SDS011;52028;50.658;14.004;2023-02-13T06:43:41;83.82;;;37.88;;
65420;SDS011;52028;50.658;14.004;2023-02-13T06:46:06;93.47;;;37.67;;
65420;SDS011;52028;50.658;14.004;2023-02-13T06:48:32;95.28;;;38.70;;
65420;SDS011;52028;50.658;14.004;2023-02-13T06:50:58;100.20;;;41.08;;
65420;SDS011;52028;50.658;14.004;2023-02-13T06:53:23;88.43;;;36.42;;
65420;SDS011;52028;50.658;14.004;2023-02-13T06:55:52;102.00;;;38.35;;
65420;SDS011;52028;50.658;14.004;2023-02-13T06:58:19;99.07;;;38.45;;
65420;SDS011;52028;50.658;14.004;2023-02-13T07:00:45;96.90;;;39.20;;
65420;SDS011;52028;50.658;14.004;2023-02-13T07:03:11;89.97;;;37.33;;
65420;SDS011;52028;50.658;14.004;2023-02-13T07:05:40;94.70;;;38.35;;
65420;SDS011;52028;50.658;14.004;2023-02-13T07:08:07;128.35;;;43.15;;
65420;SDS011;52028;50.658;14.004;2023-02-13T07:10:34;124.65;;;46.35;;
65420;SDS011;52028;50.658;14.004;2023-02-13T07:13:01;114.05;;;46.47;;
65420;SDS011;52028;50.658;14.004;2023-02-13T07:15:26;118.25;;;51.08;;
65420;SDS011;52028;50.658;14.004;2023-02-13T07:17:55;144.13;;;52.97;;
65420;SDS011;52028;50.658;14.004;2023-02-13T07:20:21;153.40;;;51.88;;
65420;SDS011;52028;50.658;14.004;2023-02-13T07:22:46;120.22;;;45.42;;
65420;SDS011;52028;50.658;14.004;2023-02-13T07:25:12;113.78;;;45.58;;
65420;SDS011;52028;50.658;14.004;2023-02-13T07:27:37;91.70;;;38.92;;
65420;SDS011;52028;50.658;14.004;2023-02-13T07:30:02;109.05;;;41.67;;
65420;SDS011;52028;50.658;14.004;2023-02-13T07:32:28;96.65;;;41.63;;
65420;SDS011;52028;50.658;14.004;2023-02-13T07:34:53;88.80;;;38.45;;
65420;SDS011;52028;50.658;14.004;2023-02-13T07:37:19;76.00;;;32.22;;
65420;SDS011;52028;50.658;14.004;2023-02-13T07:39:44;65.93;;;29.60;;
65420;SDS011;52028;50.658;14.004;2023-02-13T07:42:09;66.40;;;29.73;;
65420;SDS011;52028;50.658;14.004;2023-02-13T07:44:35;71.75;;;31.90;;
65420;SDS011;52028;50.658;14.004;2023-02-13T07:47:00;70.70;;;29.67;;
65420;SDS011;52028;50.658;14.004;2023-02-13T07:49:25;56.13;;;27.70;;
65420;SDS011;52028;50.658;14.004;2023-02-13T07:51:51;57.20;;;26.75;;
65420;SDS011;52028;50.658;14.004;2023-02-13T07:54:16;44.70;;;22.50;;
65420;SDS011;52028;50.658;14.004;2023-02-13T07:56:41;39.22;;;19.40;;
65420;SDS011;52028;50.658;14.004;2023-02-13T07:59:07;36.47;;;20.35;;
65420;SDS011;52028;50.658;14.004;2023-02-13T08:01:32;56.83;;;25.63;;
65420;SDS011;52028;50.658;14.004;2023-02-13T08:03:57;70.13;;;31.48;;
65420;SDS011;52028;50.658;14.004;2023-02-13T08:06:22;104.70;;;39.83;;
65420;SDS011;52028;50.658;14.004;2023-02-13T08:08:48;105.40;;;36.97;;
65420;SDS011;52028;50.658;14.004;2023-02-13T08:11:34;81.05;;;32.28;;
65420;SDS011;52028;50.658;14.004;2023-02-13T08:14:17;78.53;;;31.33;;
65420;SDS011;52028;50.658;14.004;2023-02-13T08:16:43;82.07;;;32.92;;
65420;SDS011;52028;50.658;14.004;2023-02-13T08:19:08;81.35;;;31.60;;
65420;SDS011;52028;50.658;14.004;2023-02-13T08:21:34;84.50;;;32.25;;
65420;SDS011;52028;50.658;14.004;2023-02-13T08:24:02;92.43;;;33.92;;
65420;SDS011;52028;50.658;14.004;2023-02-13T08:26:29;95.68;;;37.00;;
65420;SDS011;52028;50.658;14.004;2023-02-13T08:28:55;91.50;;;35.88;;
65420;SDS011;52028;50.658;14.004;2023-02-13T08:31:20;73.75;;;31.60;;
65420;SDS011;52028;50.658;14.004;2023-02-13T08:33:46;67.57;;;29.88;;
65420;SDS011;52028;50.658;14.004;2023-02-13T08:36:11;65.82;;;29.63;;
65420;SDS011;52028;50.658;14.004;2023-02-13T08:38:36;73.05;;;30.23;;
65420;SDS011;52028;50.658;14.004;2023-02-13T08:41:02;64.32;;;28.38;;
65420;SDS011;52028;50.658;14.004;2023-02-13T08:43:27;62.25;;;28.25;;
65420;SDS011;52028;50.658;14.004;2023-02-13T08:45:52;62.63;;;28.70;;
65420;SDS011;52028;50.658;14.004;2023-02-13T08:48:18;58.92;;;28.15;;
65420;SDS011;52028;50.658;14.004;2023-02-13T08:50:43;58.40;;;27.92;;
65420;SDS011;52028;50.658;14.004;2023-02-13T08:53:08;60.45;;;27.00;;
65420;SDS011;52028;50.658;14.004;2023-02-13T08:55:34;57.83;;;26.65;;
65420;SDS011;52028;50.658;14.004;2023-02-13T08:58:00;59.97;;;28.52;;
65420;SDS011;52028;50.658;14.004;2023-02-13T09:00:26;57.05;;;27.98;;
65420;SDS011;52028;50.658;14.004;2023-02-13T09:02:52;55.42;;;26.55;;
65420;SDS011;52028;50.658;14.004;2023-02-13T09:05:18;56.65;;;28.17;;
65420;SDS011;52028;50.658;14.004;2023-02-13T09:07:43;60.45;;;28.33;;
65420;SDS011;52028;50.658;14.004;2023-02-13T09:10:08;61.67;;;31.42;;
65420;SDS011;52028;50.658;14.004;2023-02-13T09:12:34;56.17;;;28.45;;
65420;SDS011;52028;50.658;14.004;2023-02-13T09:14:59;56.40;;;28.90;;
65420;SDS011;52028;50.658;14.004;2023-02-13T09:17:25;55.20;;;27.98;;
65420;SDS011;52028;50.658;14.004;2023-02-13T09:19:50;59.58;;;28.40;;
65420;SDS011;52028;50.658;14.004;2023-02-13T09:22:15;55.80;;;27.88;;
65420;SDS011;52028;50.658;14.004;2023-02-13T09:24:41;54.67;;;27.77;;
65420;SDS011;52028;50.658;14.004;2023-02-13T09:27:06;52.95;;;28.42;;
65420;SDS011;52028;50.658;14.004;2023-02-13T09:29:32;48.55;;;28.23;;
65420;SDS011;52028;50.658;14.004;2023-02-13T09:31:58;50.83;;;26.85;;
65420;SDS011;52028;50.658;14.004;2023-02-13T09:34:23;46.65;;;25.77;;
65420;SDS011;52028;50.658;14.004;2023-02-13T09:36:52;49.13;;;28.15;;
65420;SDS011;52028;50.658;14.004;2023-02-13T09:39:17;52.38;;;28.67;;
65420;SDS011;52028;50.658;14.004;2023-02-13T09:41:43;49.00;;;24.77;;
65420;SDS011;52028;50.658;14.004;2023-02-13T09:44:13;54.72;;;27.55;;
65420;SDS011;52028;50.658;14.004;2023-02-13T09:47:04;48.65;;;25.33;;
65420;SDS011;52028;50.658;14.004;2023-02-13T09:49:31;47.97;;;25.25;;
65420;SDS011;52028;50.658;14.004;2023-02-13T09:54:26;40.30;;;22.35;;
65420;SDS011;52028;50.658;14.004;2023-02-13T10:11:03;32.00;;;17.75;;
65420;SDS011;52028;50.658;14.004;2023-02-13T10:21:19;26.13;;;15.10;;
65420;SDS011;52028;50.658;14.004;2023-02-13T10:23:49;23.63;;;13.07;;
65420;SDS011;52028;50.658;14.004;2023-02-13T10:26:20;18.95;;;9.75;;
65420;SDS011;52028;50.658;14.004;2023-02-13T10:29:02;19.08;;;10.27;;
65420;SDS011;52028;50.658;14.004;2023-02-13T10:31:50;24.27;;;12.93;;
65420;SDS011;52028;50.658;14.004;2023-02-13T10:34:19;19.45;;;11.25;;
65420;SDS011;52028;50.658;14.004;2023-02-13T10:36:46;16.70;;;9.77;;
65420;SDS011;52028;50.658;14.004;2023-02-13T10:39:17;19.90;;;11.55;;
65420;SDS011;52028;50.658;14.004;2023-02-13T10:58:02;19.88;;;10.23;;
65420;SDS011;52028;50.658;14.004;2023-02-13T11:00:34;19.08;;;9.45;;
65420;SDS011;52028;50.658;14.004;2023-02-13T11:03:21;24.20;;;10.73;;
65420;SDS011;52028;50.658;14.004;2023-02-13T11:05:52;20.92;;;9.50;;
65420;SDS011;52028;50.658;14.004;2023-02-13T11:08:23;19.30;;;7.85;;
65420;SDS011;52028;50.658;14.004;2023-02-13T11:11:02;11.98;;;5.05;;
65420;SDS011;52028;50.658;14.004;2023-02-13T11:13:28;11.68;;;5.68;;
65420;SDS011;52028;50.658;14.004;2023-02-13T11:15:59;13.52;;;5.70;;
65420;SDS011;52028;50.658;14.004;2023-02-13T11:18:30;27.02;;;7.40;;
65420;SDS011;52028;50.658;14.004;2023-02-13T11:21:05;8.77;;;4.40;;
65420;SDS011;52028;50.658;14.004;2023-02-13T11:23:33;10.55;;;5.55;;
65420;SDS011;52028;50.658;14.004;2023-02-13T11:26:03;13.57;;;6.90;;
65420;SDS011;52028;50.658;14.004;2023-02-13T11:28:36;16.70;;;5.57;;
65420;SDS011;52028;50.658;14.004;2023-02-13T11:31:46;12.43;;;6.18;;
65420;SDS011;52028;50.658;14.004;2023-02-13T11:33:54;15.00;;;6.53;;
65420;SDS011;52028;50.658;14.004;2023-02-13T11:41:29;13.70;;;6.55;;
65420;SDS011;52028;50.658;14.004;2023-02-13T11:43:56;17.90;;;6.70;;
65420;SDS011;52028;50.658;14.004;2023-02-13T11:46:28;15.30;;;6.90;;
65420;SDS011;52028;50.658;14.004;2023-02-13T11:49:14;17.50;;;7.25;;
65420;SDS011;52028;50.658;14.004;2023-02-13T11:51:45;20.42;;;8.73;;
65420;SDS011;52028;50.658;14.004;2023-02-13T11:56:51;23.27;;;8.38;;
65420;SDS011;52028;50.658;14.004;2023-02-13T11:59:22;14.57;;;6.47;;
65420;SDS011;52028;50.658;14.004;2023-02-13T12:02:01;16.13;;;7.25;;
65420;SDS011;52028;50.658;14.004;2023-02-13T12:04:28;18.52;;;9.35;;
65420;SDS011;52028;50.658;14.004;2023-02-13T12:07:14;21.10;;;7.75;;
65420;SDS011;52028;50.658;14.004;2023-02-13T12:15:34;19.50;;;8.68;;
65420;SDS011;52028;50.658;14.004;2023-02-13T12:18:21;20.10;;;8.57;;
65420;SDS011;52028;50.658;14.004;2023-02-13T12:21:32;18.48;;;7.55;;
65420;SDS011;52028;50.658;14.004;2023-02-13T12:24:03;18.33;;;6.88;;
65420;SDS011;52028;50.658;14.004;2023-02-13T12:38:25;13.45;;;6.35;;
65420;SDS011;52028;50.658;14.004;2023-02-13T12:41:33;13.73;;;6.28;;
65420;SDS011;52028;50.658;14.004;2023-02-13T12:44:17;15.85;;;6.40;;
65420;SDS011;52028;50.658;14.004;2023-02-13T12:47:01;8.77;;;5.30;;
65420;SDS011;52028;50.658;14.004;2023-02-13T13:06:09;9.45;;;5.38;;
65420;SDS011;52028;50.658;14.004;2023-02-13T13:14:31;20.88;;;6.50;;
65420;SDS011;52028;50.658;14.004;2023-02-13T13:17:05;15.35;;;7.65;;
65420;SDS011;52028;50.658;14.004;2023-02-13T13:19:45;17.77;;;7.30;;
65420;SDS011;52028;50.658;14.004;2023-02-13T13:22:22;22.35;;;6.95;;
65420;SDS011;52028;50.658;14.004;2023-02-13T13:27:23;22.92;;;8.85;;
65420;SDS011;52028;50.658;14.004;2023-02-13T13:30:02;15.20;;;7.38;;
65420;SDS011;52028;50.658;14.004;2023-02-13T13:32:36;13.07;;;7.03;;
65420;SDS011;52028;50.658;14.004;2023-02-13T13:35:03;13.38;;;6.50;;
65420;SDS011;52028;50.658;14.004;2023-02-13T13:37:32;16.63;;;7.80;;
65420;SDS011;52028;50.658;14.004;2023-02-13T13:42:53;17.20;;;5.90;;
65420;SDS011;52028;50.658;14.004;2023-02-13T13:45:28;13.15;;;6.47;;
65420;SDS011;52028;50.658;14.004;2023-02-13T13:50:34;9.85;;;5.75;;
65420;SDS011;52028;50.658;14.004;2023-02-13T13:58:22;12.07;;;5.68;;
65420;SDS011;52028;50.658;14.004;2023-02-13T14:01:14;10.02;;;5.82;;
65420;SDS011;52028;50.658;14.004;2023-02-13T14:03:42;12.98;;;6.05;;
65420;SDS011;52028;50.658;14.004;2023-02-13T14:06:09;9.65;;;5.72;;
65420;SDS011;52028;50.658;14.004;2023-02-13T14:08:56;18.30;;;6.63;;
65420;SDS011;52028;50.658;14.004;2023-02-13T14:16:56;15.60;;;5.82;;
65420;SDS011;52028;50.658;14.004;2023-02-13T14:19:24;14.00;;;6.63;;
65420;SDS011;52028;50.658;14.004;2023-02-13T14:24:58;14.93;;;6.75;;
65420;SDS011;52028;50.658;14.004;2023-02-13T14:27:27;14.73;;;6.25;;
65420;SDS011;52028;50.658;14.004;2023-02-13T14:29:55;9.68;;;5.43;;
65420;SDS011;52028;50.658;14.004;2023-02-13T14:32:23;11.38;;;5.85;;
65420;SDS011;52028;50.658;14.004;2023-02-13T14:35:04;12.43;;;6.65;;
65420;SDS011;52028;50.658;14.004;2023-02-13T14:37:48;12.95;;;5.82;;
65420;SDS011;52028;50.658;14.004;2023-02-13T14:42:43;11.05;;;5.40;;
65420;SDS011;52028;50.658;14.004;2023-02-13T14:45:15;12.02;;;5.60;;
65420;SDS011;52028;50.658;14.004;2023-02-13T14:47:43;12.52;;;6.30;;
65420;SDS011;52028;50.658;14.004;2023-02-13T14:50:19;15.50;;;6.90;;
65420;SDS011;52028;50.658;14.004;2023-02-13T14:52:48;12.73;;;7.07;;
65420;SDS011;52028;50.658;14.004;2023-02-13T14:55:16;13.57;;;6.50;;
65420;SDS011;52028;50.658;14.004;2023-02-13T14:58:01;11.63;;;6.72;;
65420;SDS011;52028;50.658;14.004;2023-02-13T15:05:51;14.52;;;6.53;;
65420;SDS011;52028;50.658;14.004;2023-02-13T15:08:20;15.10;;;7.05;;
65420;SDS011;52028;50.658;14.004;2023-02-13T15:13:17;9.43;;;5.57;;
65420;SDS011;52028;50.658;14.004;2023-02-13T15:15:53;10.80;;;6.18;;
65420;SDS011;52028;50.658;14.004;2023-02-13T15:18:26;13.25;;;6.80;;
65420;SDS011;52028;50.658;14.004;2023-02-13T15:20:55;12.25;;;6.55;;
65420;SDS011;52028;50.658;14.004;2023-02-13T15:23:27;12.20;;;6.65;;
65420;SDS011;52028;50.658;14.004;2023-02-13T15:25:59;11.10;;;6.00;;
65420;SDS011;52028;50.658;14.004;2023-02-13T15:28:32;14.77;;;6.93;;
65420;SDS011;52028;50.658;14.004;2023-02-13T15:30:59;12.98;;;6.82;;
65420;SDS011;52028;50.658;14.004;2023-02-13T15:33:27;10.48;;;6.60;;
65420;SDS011;52028;50.658;14.004;2023-02-13T15:36:03;14.07;;;7.05;;
65420;SDS011;52028;50.658;14.004;2023-02-13T15:38:34;13.23;;;6.25;;
65420;SDS011;52028;50.658;14.004;2023-02-13T15:41:03;13.32;;;6.40;;
65420;SDS011;52028;50.658;14.004;2023-02-13T15:43:33;11.75;;;6.28;;
65420;SDS011;52028;50.658;14.004;2023-02-13T15:46:05;14.25;;;6.68;;
65420;SDS011;52028;50.658;14.004;2023-02-13T15:48:42;15.10;;;7.15;;
65420;SDS011;52028;50.658;14.004;2023-02-13T15:51:08;15.95;;;7.05;;
65420;SDS011;52028;50.658;14.004;2023-02-13T15:53:52;12.20;;;6.30;;
65420;SDS011;52028;50.658;14.004;2023-02-13T15:56:22;11.77;;;6.90;;
65420;SDS011;52028;50.658;14.004;2023-02-13T15:58:48;16.08;;;7.35;;
65420;SDS011;52028;50.658;14.004;2023-02-13T16:01:15;14.52;;;7.22;;
65420;SDS011;52028;50.658;14.004;2023-02-13T16:03:41;13.63;;;7.53;;
65420;SDS011;52028;50.658;14.004;2023-02-13T16:06:19;14.30;;;7.75;;
65420;SDS011;52028;50.658;14.004;2023-02-13T16:08:55;18.08;;;7.85;;
65420;SDS011;52028;50.658;14.004;2023-02-13T16:16:44;17.83;;;9.13;;
65420;SDS011;52028;50.658;14.004;2023-02-13T16:19:26;17.45;;;9.23;;
65420;SDS011;52028;50.658;14.004;2023-02-13T16:21:53;18.70;;;10.15;;
65420;SDS011;52028;50.658;14.004;2023-02-13T16:24:20;20.90;;;10.52;;
65420;SDS011;52028;50.658;14.004;2023-02-13T16:26:46;23.85;;;9.85;;
65420;SDS011;52028;50.658;14.004;2023-02-13T16:29:15;21.83;;;9.82;;
65420;SDS011;52028;50.658;14.004;2023-02-13T16:31:45;18.65;;;9.82;;
65420;SDS011;52028;50.658;14.004;2023-02-13T16:34:12;19.25;;;9.38;;
65420;SDS011;52028;50.658;14.004;2023-02-13T16:36:39;23.52;;;11.25;;
65420;SDS011;52028;50.658;14.004;2023-02-13T16:39:14;28.65;;;12.60;;
65420;SDS011;52028;50.658;14.004;2023-02-13T16:41:43;23.45;;;12.55;;
65420;SDS011;52028;50.658;14.004;2023-02-13T16:44:21;21.67;;;10.65;;
65420;SDS011;52028;50.658;14.004;2023-02-13T16:46:50;23.08;;;11.77;;
65420;SDS011;52028;50.658;14.004;2023-02-13T16:49:38;28.13;;;13.82;;
65420;SDS011;52028;50.658;14.004;2023-02-13T16:57:29;27.63;;;14.10;;
65420;SDS011;52028;50.658;14.004;2023-02-13T17:02:37;20.00;;;10.48;;
65420;SDS011;52028;50.658;14.004;2023-02-13T17:05:14;21.38;;;10.68;;
65420;SDS011;52028;50.658;14.004;2023-02-13T17:07:51;22.90;;;11.27;;
65420;SDS011;52028;50.658;14.004;2023-02-13T17:12:50;25.20;;;12.73;;
65420;SDS011;52028;50.658;14.004;2023-02-13T17:15:17;27.45;;;12.43;;
65420;SDS011;52028;50.658;14.004;2023-02-13T17:17:45;24.40;;;11.75;;
65420;SDS011;52028;50.658;14.004;2023-02-13T17:20:15;27.63;;;14.15;;
65420;SDS011;52028;50.658;14.004;2023-02-13T17:22:43;31.23;;;17.17;;
65420;SDS011;52028;50.658;14.004;2023-02-13T17:27:44;32.00;;;13.88;;
65420;SDS011;52028;50.658;14.004;2023-02-13T17:30:14;23.67;;;12.25;;
65420;SDS011;52028;50.658;14.004;2023-02-13T17:32:41;22.05;;;11.45;;
65420;SDS011;52028;50.658;14.004;2023-02-13T17:35:09;23.52;;;12.55;;